Main page
METAR-TAF:

METAR-TAF

Airports :

Reus, Spain

Reus Airport

latitude: 41-09N, longitude: 001-10E, elevation: 71 m

Current weather observation

The report was made 33 minutes ago, at 01:30 UTC
Wind 2 kt from variable directions
Temperature 14°C
Humidity 82%
Pressure 1017 hPa
Visibility 10 km or more

METAR: LERS 290130Z AUTO VRB02KT 9999 NCD 14/11 Q1017

Time: 04:03 (02:03 UTC)

Forecast

The report was made 6 hours and 3 minutes ago, at 20:00 UTC
Forecast valid from 28 at 21 UTC to 29 at 21 UTC
Wind 3 kt from variable directions
Visibility 10 km or more
Few clouds at a height of 2000 ft
Becoming
from 29 at 10 UTC to 29 at 12 UTC
Wind 8 kt from the Southeast
Becoming
from 29 at 18 UTC to 29 at 20 UTC
Wind 3 kt from variable directions

TAF: LERS 282000Z 2821/2921 VRB03KT 9999 FEW020 TX27/2913Z TN17/2906Z BECMG 2910/2912 13008KT BECMG 2918/2920 VRB03KT

Weather observations and forecasts of more than 4000 airports (METAR and TAF reports).

The available stations are represented by yellow and red dots on the map.

Hover mouse over dot to see the name of the station.

Then click to see weather observations and forecasts.

To change the map : click on the green buttons with a black cross to zoom in, on the green button with a dash to zoom out, or on the green arrows for adjacent maps.


METAR-TAF: